sensor_id;sensor_type;location;lat;lon;timestamp;pressure;altitude;pressure_sealevel;temperature;humidity
53041;BME280;39326;42.650;23.248;2022-10-26T00:00:50;93078.81;;;14.43;58.87
53041;BME280;39326;42.650;23.248;2022-10-26T00:03:17;93084.50;;;14.52;58.09
53041;BME280;39326;42.650;23.248;2022-10-26T00:05:43;93075.69;;;14.52;58.08
53041;BME280;39326;42.650;23.248;2022-10-26T00:08:09;93084.91;;;14.51;58.26
53041;BME280;39326;42.650;23.248;2022-10-26T00:10:38;93079.19;;;14.45;58.44
53041;BME280;39326;42.650;23.248;2022-10-26T00:13:07;93076.16;;;14.39;58.57
53041;BME280;39326;42.650;23.248;2022-10-26T00:15:33;93073.03;;;14.48;58.00
53041;BME280;39326;42.650;23.248;2022-10-26T00:17:59;93082.19;;;14.54;57.73
53041;BME280;39326;42.650;23.248;2022-10-26T00:20:24;93083.72;;;14.52;57.81
53041;BME280;39326;42.650;23.248;2022-10-26T00:22:50;93083.34;;;14.53;57.73
53041;BME280;39326;42.650;23.248;2022-10-26T00:25:16;93085.31;;;14.46;57.95
53041;BME280;39326;42.650;23.248;2022-10-26T00:27:42;93084.91;;;14.47;58.00
53041;BME280;39326;42.650;23.248;2022-10-26T00:30:08;93089.91;;;14.49;57.69
53041;BME280;39326;42.650;23.248;2022-10-26T00:32:35;93081.47;;;14.47;57.36
53041;BME280;39326;42.650;23.248;2022-10-26T00:35:01;93091.81;;;14.48;57.28
53041;BME280;39326;42.650;23.248;2022-10-26T00:37:27;93077.66;;;14.44;57.69
53041;BME280;39326;42.650;23.248;2022-10-26T00:39:54;93091.44;;;14.50;57.05
53041;BME280;39326;42.650;23.248;2022-10-26T00:42:21;93081.84;;;14.49;57.48
53041;BME280;39326;42.650;23.248;2022-10-26T00:47:26;93083.44;;;14.39;57.51
53041;BME280;39326;42.650;23.248;2022-10-26T00:49:55;93086.56;;;14.30;57.75
53041;BME280;39326;42.650;23.248;2022-10-26T00:52:23;93084.25;;;14.29;57.47
53041;BME280;39326;42.650;23.248;2022-10-26T00:54:50;93087.34;;;14.27;57.73
53041;BME280;39326;42.650;23.248;2022-10-26T00:57:18;93075.88;;;14.20;57.88
53041;BME280;39326;42.650;23.248;2022-10-26T00:59:44;93082.03;;;14.17;57.73
53041;BME280;39326;42.650;23.248;2022-10-26T01:02:12;93078.97;;;14.15;57.64
53041;BME280;39326;42.650;23.248;2022-10-26T01:04:38;93082.00;;;14.20;56.96
53041;BME280;39326;42.650;23.248;2022-10-26T01:07:04;93072.03;;;14.24;57.08
53041;BME280;39326;42.650;23.248;2022-10-26T01:09:31;93067.03;;;14.26;56.97
53041;BME280;39326;42.650;23.248;2022-10-26T01:11:58;93063.59;;;14.22;57.15
53041;BME280;39326;42.650;23.248;2022-10-26T01:14:26;93063.56;;;14.29;57.00
53041;BME280;39326;42.650;23.248;2022-10-26T01:22:28;93057.47;;;14.25;57.40
53041;BME280;39326;42.650;23.248;2022-10-26T01:27:50;93060.16;;;14.22;57.37
53041;BME280;39326;42.650;23.248;2022-10-26T01:33:06;93065.19;;;14.13;58.09
53041;BME280;39326;42.650;23.248;2022-10-26T01:43:40;93063.00;;;13.93;58.90
53041;BME280;39326;42.650;23.248;2022-10-26T01:46:08;93064.91;;;13.93;58.96
53041;BME280;39326;42.650;23.248;2022-10-26T01:48:36;93059.56;;;13.93;59.42
53041;BME280;39326;42.650;23.248;2022-10-26T01:51:05;93058.84;;;13.85;59.17
53041;BME280;39326;42.650;23.248;2022-10-26T01:53:32;93051.56;;;13.86;59.49
53041;BME280;39326;42.650;23.248;2022-10-26T01:55:59;93041.59;;;13.82;59.27
53041;BME280;39326;42.650;23.248;2022-10-26T02:09:17;93042.31;;;13.94;58.99
53041;BME280;39326;42.650;23.248;2022-10-26T02:11:47;93046.88;;;14.00;58.53
53041;BME280;39326;42.650;23.248;2022-10-26T02:17:28;93048.78;;;14.00;58.85
53041;BME280;39326;42.650;23.248;2022-10-26T02:19:58;93050.31;;;14.04;58.62
53041;BME280;39326;42.650;23.248;2022-10-26T02:22:35;93050.31;;;14.04;58.85
53041;BME280;39326;42.650;23.248;2022-10-26T02:25:23;93058.38;;;13.97;59.19
53041;BME280;39326;42.650;23.248;2022-10-26T02:27:56;93060.72;;;13.92;59.09
53041;BME280;39326;42.650;23.248;2022-10-26T02:30:24;93058.41;;;13.94;58.97
53041;BME280;39326;42.650;23.248;2022-10-26T02:32:52;93060.31;;;13.90;59.20
53041;BME280;39326;42.650;23.248;2022-10-26T02:35:22;93056.53;;;13.80;59.64
53041;BME280;39326;42.650;23.248;2022-10-26T02:37:52;93060.38;;;13.79;59.73
53041;BME280;39326;42.650;23.248;2022-10-26T02:40:24;93056.53;;;13.76;60.08
53041;BME280;39326;42.650;23.248;2022-10-26T02:42:51;93062.25;;;13.78;59.96
53041;BME280;39326;42.650;23.248;2022-10-26T02:45:23;93053.53;;;13.67;60.18
53041;BME280;39326;42.650;23.248;2022-10-26T02:47:51;93052.06;;;13.48;60.94
53041;BME280;39326;42.650;23.248;2022-10-26T02:50:23;93058.13;;;13.63;60.42
53041;BME280;39326;42.650;23.248;2022-10-26T02:53:09;93062.31;;;13.64;61.05
53041;BME280;39326;42.650;23.248;2022-10-26T02:55:43;93061.97;;;13.51;61.03
53041;BME280;39326;42.650;23.248;2022-10-26T02:58:15;93066.16;;;13.63;60.58
53041;BME280;39326;42.650;23.248;2022-10-26T03:00:43;93063.47;;;13.63;60.83
53041;BME280;39326;42.650;23.248;2022-10-26T03:03:09;93063.88;;;13.62;60.67
53041;BME280;39326;42.650;23.248;2022-10-26T03:05:35;93060.88;;;13.42;61.48
53041;BME280;39326;42.650;23.248;2022-10-26T03:08:05;93059.69;;;13.50;60.79
53041;BME280;39326;42.650;23.248;2022-10-26T03:10:32;93071.19;;;13.43;61.27
53041;BME280;39326;42.650;23.248;2022-10-26T03:13:00;93066.63;;;13.33;61.81
53041;BME280;39326;42.650;23.248;2022-10-26T03:15:26;93068.56;;;13.36;61.35
53041;BME280;39326;42.650;23.248;2022-10-26T03:17:52;93085.34;;;13.40;61.03
53041;BME280;39326;42.650;23.248;2022-10-26T03:20:18;93087.69;;;13.42;61.00
53041;BME280;39326;42.650;23.248;2022-10-26T03:22:46;93094.19;;;13.26;61.54
53041;BME280;39326;42.650;23.248;2022-10-26T03:25:15;93095.38;;;13.18;61.58
53041;BME280;39326;42.650;23.248;2022-10-26T03:27:41;93091.91;;;13.21;61.49
53041;BME280;39326;42.650;23.248;2022-10-26T03:30:08;93088.09;;;13.19;61.88
53041;BME280;39326;42.650;23.248;2022-10-26T03:32:34;93095.38;;;13.18;61.76
53041;BME280;39326;42.650;23.248;2022-10-26T03:34:59;93104.53;;;13.21;61.72
53041;BME280;39326;42.650;23.248;2022-10-26T03:37:25;93104.53;;;13.24;61.93
53041;BME280;39326;42.650;23.248;2022-10-26T03:39:51;93101.13;;;13.10;62.76
53041;BME280;39326;42.650;23.248;2022-10-26T03:42:17;93099.19;;;13.14;62.67
53041;BME280;39326;42.650;23.248;2022-10-26T03:44:44;93098.81;;;13.19;62.39
53041;BME280;39326;42.650;23.248;2022-10-26T03:47:11;93102.63;;;13.14;62.63
53041;BME280;39326;42.650;23.248;2022-10-26T03:49:37;93106.47;;;13.24;61.93
53041;BME280;39326;42.650;23.248;2022-10-26T03:52:03;93107.97;;;13.21;62.32
53041;BME280;39326;42.650;23.248;2022-10-26T03:54:29;93104.91;;;13.16;62.56
53041;BME280;39326;42.650;23.248;2022-10-26T03:56:56;93100.69;;;13.22;62.44
53041;BME280;39326;42.650;23.248;2022-10-26T03:59:21;93103.41;;;13.18;62.76
53041;BME280;39326;42.650;23.248;2022-10-26T04:01:48;93093.47;;;13.12;62.80
53041;BME280;39326;42.650;23.248;2022-10-26T04:04:14;93098.81;;;13.08;62.86
53041;BME280;39326;42.650;23.248;2022-10-26T04:06:40;93108.38;;;13.06;63.31
53041;BME280;39326;42.650;23.248;2022-10-26T04:09:06;93108.78;;;13.00;63.10
53041;BME280;39326;42.650;23.248;2022-10-26T04:11:32;93105.72;;;12.88;63.81
53041;BME280;39326;42.650;23.248;2022-10-26T04:13:58;93097.69;;;12.84;64.27
53041;BME280;39326;42.650;23.248;2022-10-26T04:16:25;93099.97;;;12.89;64.46
53041;BME280;39326;42.650;23.248;2022-10-26T04:18:52;93101.13;;;12.88;64.55
53041;BME280;39326;42.650;23.248;2022-10-26T04:21:18;93095.41;;;12.79;65.13
53041;BME280;39326;42.650;23.248;2022-10-26T04:23:43;93089.66;;;12.77;65.60
53041;BME280;39326;42.650;23.248;2022-10-26T04:26:10;93091.94;;;12.82;64.95
53041;BME280;39326;42.650;23.248;2022-10-26T04:28:36;93102.25;;;12.62;66.30
53041;BME280;39326;42.650;23.248;2022-10-26T04:31:02;93103.06;;;12.66;65.90
53041;BME280;39326;42.650;23.248;2022-10-26T04:33:27;93104.91;;;12.62;66.30
53041;BME280;39326;42.650;23.248;2022-10-26T04:35:58;93101.84;;;12.57;66.82
53041;BME280;39326;42.650;23.248;2022-10-26T04:38:25;93108.34;;;12.56;66.27
53041;BME280;39326;42.650;23.248;2022-10-26T04:40:51;93107.97;;;12.57;66.38
53041;BME280;39326;42.650;23.248;2022-10-26T04:43:17;93107.22;;;12.53;66.57
53041;BME280;39326;42.650;23.248;2022-10-26T04:45:43;93114.44;;;12.52;66.64
53041;BME280;39326;42.650;23.248;2022-10-26T04:48:10;93104.50;;;12.46;67.25
53041;BME280;39326;42.650;23.248;2022-10-26T04:50:37;93113.69;;;12.48;67.02
53041;BME280;39326;42.650;23.248;2022-10-26T04:53:04;93116.75;;;12.50;66.89
53041;BME280;39326;42.650;23.248;2022-10-26T04:55:29;93122.88;;;12.55;66.92
53041;BME280;39326;42.650;23.248;2022-10-26T04:57:55;93113.31;;;12.54;67.05
53041;BME280;39326;42.650;23.248;2022-10-26T05:00:21;93117.91;;;12.53;66.85
53041;BME280;39326;42.650;23.248;2022-10-26T05:02:47;93120.19;;;12.51;66.77
53041;BME280;39326;42.650;23.248;2022-10-26T05:05:13;93120.56;;;12.49;66.86
53041;BME280;39326;42.650;23.248;2022-10-26T05:07:39;93121.31;;;12.43;67.08
53041;BME280;39326;42.650;23.248;2022-10-26T05:10:05;93123.22;;;12.39;67.07
53041;BME280;39326;42.650;23.248;2022-10-26T05:12:32;93120.16;;;12.33;67.35
53041;BME280;39326;42.650;23.248;2022-10-26T05:14:58;93120.91;;;12.34;67.30
53041;BME280;39326;42.650;23.248;2022-10-26T05:17:27;93124.38;;;12.34;67.50
53041;BME280;39326;42.650;23.248;2022-10-26T05:19:53;93125.16;;;12.35;67.41
53041;BME280;39326;42.650;23.248;2022-10-26T05:22:24;93120.91;;;12.30;68.04
53041;BME280;39326;42.650;23.248;2022-10-26T05:24:50;93119.41;;;12.29;68.16
53041;BME280;39326;42.650;23.248;2022-10-26T05:27:16;93123.22;;;12.32;67.84
53041;BME280;39326;42.650;23.248;2022-10-26T05:29:43;93125.50;;;12.33;67.98
53041;BME280;39326;42.650;23.248;2022-10-26T05:32:08;93128.94;;;12.34;68.15
53041;BME280;39326;42.650;23.248;2022-10-26T05:34:35;93132.78;;;12.36;68.15
53041;BME280;39326;42.650;23.248;2022-10-26T05:37:00;93138.09;;;12.33;68.59
53041;BME280;39326;42.650;23.248;2022-10-26T05:39:26;93145.00;;;12.37;68.34
53041;BME280;39326;42.650;23.248;2022-10-26T05:41:52;93147.31;;;12.35;68.56
53041;BME280;39326;42.650;23.248;2022-10-26T05:44:17;93149.22;;;12.35;68.92
53041;BME280;39326;42.650;23.248;2022-10-26T05:46:46;93150.72;;;12.39;68.82
53041;BME280;39326;42.650;23.248;2022-10-26T05:49:13;93145.03;;;12.41;68.86
53041;BME280;39326;42.650;23.248;2022-10-26T05:51:40;93153.41;;;12.46;68.87
53041;BME280;39326;42.650;23.248;2022-10-26T05:54:05;93141.19;;;12.45;69.01
53041;BME280;39326;42.650;23.248;2022-10-26T05:56:36;93155.75;;;12.48;69.29
53041;BME280;39326;42.650;23.248;2022-10-26T05:59:04;93152.66;;;12.39;70.36
53041;BME280;39326;42.650;23.248;2022-10-26T06:01:42;93165.28;;;12.52;69.62
53041;BME280;39326;42.650;23.248;2022-10-26T06:04:43;93156.88;;;12.58;69.96
53041;BME280;39326;42.650;23.248;2022-10-26T06:07:14;93164.97;;;12.68;69.12
53041;BME280;39326;42.650;23.248;2022-10-26T06:09:41;93170.69;;;12.70;69.20
53041;BME280;39326;42.650;23.248;2022-10-26T06:12:09;93171.47;;;12.78;68.74
53041;BME280;39326;42.650;23.248;2022-10-26T06:14:35;93170.72;;;12.81;68.88
53041;BME280;39326;42.650;23.248;2022-10-26T06:17:27;93176.06;;;12.77;69.86
53041;BME280;39326;42.650;23.248;2022-10-26T06:28:20;93179.94;;;12.98;68.97
53041;BME280;39326;42.650;23.248;2022-10-26T06:30:49;93184.88;;;13.03;69.17
53041;BME280;39326;42.650;23.248;2022-10-26T06:33:16;93188.34;;;13.07;68.91
53041;BME280;39326;42.650;23.248;2022-10-26T06:35:54;93187.97;;;13.12;68.69
53041;BME280;39326;42.650;23.248;2022-10-26T06:38:26;93186.44;;;13.18;68.35
53041;BME280;39326;42.650;23.248;2022-10-26T06:40:55;93184.91;;;13.31;68.17
53041;BME280;39326;42.650;23.248;2022-10-26T06:43:26;93180.28;;;13.46;67.40
53041;BME280;39326;42.650;23.248;2022-10-26T06:46:02;93177.97;;;13.52;67.09
53041;BME280;39326;42.650;23.248;2022-10-26T06:48:46;93182.59;;;13.55;67.01
53041;BME280;39326;42.650;23.248;2022-10-26T06:51:15;93176.81;;;13.64;66.69
53041;BME280;39326;42.650;23.248;2022-10-26T06:56:33;93184.84;;;13.67;66.67
53041;BME280;39326;42.650;23.248;2022-10-26T06:59:08;93189.44;;;13.74;65.57
53041;BME280;39326;42.650;23.248;2022-10-26T07:01:38;93193.25;;;13.80;65.82
53041;BME280;39326;42.650;23.248;2022-10-26T07:04:04;93195.16;;;13.94;65.24
53041;BME280;39326;42.650;23.248;2022-10-26T07:06:30;93199.34;;;14.05;65.09
53041;BME280;39326;42.650;23.248;2022-10-26T07:08:56;93205.44;;;14.17;65.09
53041;BME280;39326;42.650;23.248;2022-10-26T07:11:22;93199.66;;;14.22;64.97
53041;BME280;39326;42.650;23.248;2022-10-26T07:13:48;93205.72;;;14.44;64.25
53041;BME280;39326;42.650;23.248;2022-10-26T07:16:16;93204.09;;;14.60;63.80
53041;BME280;39326;42.650;23.248;2022-10-26T07:18:42;93199.81;;;14.70;63.34
53041;BME280;39326;42.650;23.248;2022-10-26T07:21:07;93202.13;;;14.72;64.02
53041;BME280;39326;42.650;23.248;2022-10-26T07:23:34;93202.88;;;14.76;63.69
53041;BME280;39326;42.650;23.248;2022-10-26T07:26:00;93203.16;;;14.96;63.15
53041;BME280;39326;42.650;23.248;2022-10-26T07:28:26;93196.56;;;15.04;62.79
53041;BME280;39326;42.650;23.248;2022-10-26T07:30:52;93200.00;;;15.11;62.16
53041;BME280;39326;42.650;23.248;2022-10-26T07:33:18;93196.09;;;15.19;62.03
53041;BME280;39326;42.650;23.248;2022-10-26T07:35:44;93195.97;;;15.34;61.34
53041;BME280;39326;42.650;23.248;2022-10-26T07:38:11;93200.28;;;15.24;61.59
53041;BME280;39326;42.650;23.248;2022-10-26T07:40:37;93191.34;;;15.34;61.71
53041;BME280;39326;42.650;23.248;2022-10-26T07:43:03;93196.78;;;15.27;61.96
53041;BME280;39326;42.650;23.248;2022-10-26T07:45:29;93197.94;;;15.30;61.67
53041;BME280;39326;42.650;23.248;2022-10-26T07:47:56;93195.53;;;15.39;61.67
53041;BME280;39326;42.650;23.248;2022-10-26T07:50:22;93195.00;;;15.55;61.54
53041;BME280;39326;42.650;23.248;2022-10-26T07:52:48;93194.09;;;15.72;60.63
53041;BME280;39326;42.650;23.248;2022-10-26T07:55:14;93189.84;;;15.75;60.81
53041;BME280;39326;42.650;23.248;2022-10-26T07:57:40;93192.88;;;15.80;60.91
53041;BME280;39326;42.650;23.248;2022-10-26T08:00:07;93199.25;;;15.97;60.17
53041;BME280;39326;42.650;23.248;2022-10-26T08:02:34;93192.94;;;16.14;59.76
53041;BME280;39326;42.650;23.248;2022-10-26T08:05:00;93190.00;;;16.02;60.14
53041;BME280;39326;42.650;23.248;2022-10-26T08:07:26;93167.22;;;16.10;59.25
53041;BME280;39326;42.650;23.248;2022-10-26T08:09:52;93196.09;;;16.40;58.82
53041;BME280;39326;42.650;23.248;2022-10-26T08:12:18;93192.78;;;16.59;58.37
53041;BME280;39326;42.650;23.248;2022-10-26T08:14:44;93191.31;;;16.82;57.83
53041;BME280;39326;42.650;23.248;2022-10-26T08:17:10;93193.84;;;16.65;57.68
53041;BME280;39326;42.650;23.248;2022-10-26T08:19:36;93194.25;;;16.94;57.48
53041;BME280;39326;42.650;23.248;2022-10-26T08:22:02;93194.34;;;17.14;56.80
53041;BME280;39326;42.650;23.248;2022-10-26T08:24:28;93193.09;;;17.46;56.52
53041;BME280;39326;42.650;23.248;2022-10-26T08:26:54;93191.19;;;17.43;56.11
53041;BME280;39326;42.650;23.248;2022-10-26T08:29:20;93190.28;;;17.53;55.48
53041;BME280;39326;42.650;23.248;2022-10-26T08:31:48;93184.06;;;17.79;54.93
53041;BME280;39326;42.650;23.248;2022-10-26T08:34:14;93188.00;;;17.75;54.52
53041;BME280;39326;42.650;23.248;2022-10-26T08:36:40;93184.63;;;17.91;54.18
53041;BME280;39326;42.650;23.248;2022-10-26T08:39:06;93183.81;;;17.70;53.51
53041;BME280;39326;42.650;23.248;2022-10-26T08:41:43;93187.69;;;17.46;52.55
53041;BME280;39326;42.650;23.248;2022-10-26T08:44:26;93185.34;;;17.71;53.49
53041;BME280;39326;42.650;23.248;2022-10-26T08:46:59;93194.22;;;17.95;52.37
53041;BME280;39326;42.650;23.248;2022-10-26T08:49:37;93190.06;;;18.10;51.67
53041;BME280;39326;42.650;23.248;2022-10-26T08:52:04;93201.28;;;18.49;50.86
53041;BME280;39326;42.650;23.248;2022-10-26T08:57:10;93200.19;;;18.66;48.69
53041;BME280;39326;42.650;23.248;2022-10-26T09:00:04;93204.22;;;18.94;49.08
53041;BME280;39326;42.650;23.248;2022-10-26T09:02:31;93207.50;;;19.21;49.06
53041;BME280;39326;42.650;23.248;2022-10-26T09:04:58;93201.94;;;19.45;48.58
53041;BME280;39326;42.650;23.248;2022-10-26T09:13:02;93203.31;;;19.53;48.61
53041;BME280;39326;42.650;23.248;2022-10-26T09:15:57;93198.88;;;19.43;47.52
53041;BME280;39326;42.650;23.248;2022-10-26T09:18:43;93206.66;;;19.41;47.21
53041;BME280;39326;42.650;23.248;2022-10-26T09:24:13;93195.41;;;19.42;48.14
53041;BME280;39326;42.650;23.248;2022-10-26T09:26:57;93193.75;;;19.65;47.52
53041;BME280;39326;42.650;23.248;2022-10-26T09:29:33;93189.03;;;19.98;47.08
53041;BME280;39326;42.650;23.248;2022-10-26T09:32:02;93196.53;;;19.78;47.13
53041;BME280;39326;42.650;23.248;2022-10-26T09:34:48;93192.50;;;19.98;45.92
53041;BME280;39326;42.650;23.248;2022-10-26T09:37:21;93197.34;;;20.20;45.86
53041;BME280;39326;42.650;23.248;2022-10-26T09:40:10;93186.06;;;20.38;43.39
53041;BME280;39326;42.650;23.248;2022-10-26T09:42:50;93184.88;;;20.39;43.77
53041;BME280;39326;42.650;23.248;2022-10-26T09:47:58;93189.97;;;20.08;44.08
53041;BME280;39326;42.650;23.248;2022-10-26T09:50:36;93192.06;;;19.71;45.22
53041;BME280;39326;42.650;23.248;2022-10-26T09:53:04;93191.03;;;19.65;45.46
53041;BME280;39326;42.650;23.248;2022-10-26T09:55:31;93176.19;;;19.86;45.37
53041;BME280;39326;42.650;23.248;2022-10-26T09:58:00;93177.22;;;20.50;44.01
53041;BME280;39326;42.650;23.248;2022-10-26T10:00:28;93179.88;;;20.79;43.29
53041;BME280;39326;42.650;23.248;2022-10-26T10:02:55;93177.13;;;21.08;42.78
53041;BME280;39326;42.650;23.248;2022-10-26T10:05:26;93165.66;;;20.88;42.38
53041;BME280;39326;42.650;23.248;2022-10-26T10:10:33;93172.94;;;20.78;43.45
53041;BME280;39326;42.650;23.248;2022-10-26T10:13:13;93162.72;;;20.95;43.04
53041;BME280;39326;42.650;23.248;2022-10-26T10:15:40;93168.69;;;20.64;43.08
53041;BME280;39326;42.650;23.248;2022-10-26T10:18:18;93163.47;;;20.82;42.92
53041;BME280;39326;42.650;23.248;2022-10-26T10:20:51;93161.97;;;20.94;43.47
53041;BME280;39326;42.650;23.248;2022-10-26T10:23:28;93168.41;;;21.13;42.89
53041;BME280;39326;42.650;23.248;2022-10-26T10:26:06;93156.22;;;20.92;42.97
53041;BME280;39326;42.650;23.248;2022-10-26T10:28:33;93160.03;;;20.95;44.65
53041;BME280;39326;42.650;23.248;2022-10-26T10:31:02;93160.84;;;21.08;43.49
53041;BME280;39326;42.650;23.248;2022-10-26T10:33:39;93157.09;;;21.53;41.62
53041;BME280;39326;42.650;23.248;2022-10-26T10:36:09;93160.81;;;21.46;42.34
53041;BME280;39326;42.650;23.248;2022-10-26T10:38:40;93153.00;;;21.83;42.77
53041;BME280;39326;42.650;23.248;2022-10-26T10:41:18;93150.22;;;22.30;41.36
53041;BME280;39326;42.650;23.248;2022-10-26T10:44:02;93151.75;;;22.53;39.87
53041;BME280;39326;42.650;23.248;2022-10-26T10:46:30;93147.88;;;22.20;40.28
53041;BME280;39326;42.650;23.248;2022-10-26T10:49:02;93152.22;;;22.39;39.78
53041;BME280;39326;42.650;23.248;2022-10-26T10:51:33;93146.94;;;22.57;39.10
53041;BME280;39326;42.650;23.248;2022-10-26T10:54:01;93151.81;;;22.62;39.00
53041;BME280;39326;42.650;23.248;2022-10-26T11:01:37;93136.53;;;22.87;37.99
53041;BME280;39326;42.650;23.248;2022-10-26T11:06:42;93133.63;;;22.81;37.69
53041;BME280;39326;42.650;23.248;2022-10-26T11:09:17;93123.25;;;23.29;37.07
53041;BME280;39326;42.650;23.248;2022-10-26T11:12:09;93124.56;;;23.15;37.38
53041;BME280;39326;42.650;23.248;2022-10-26T11:14:43;93126.91;;;23.44;37.60
53041;BME280;39326;42.650;23.248;2022-10-26T11:17:21;93128.53;;;23.33;36.21
53041;BME280;39326;42.650;23.248;2022-10-26T11:19:54;93119.81;;;23.56;37.62
53041;BME280;39326;42.650;23.248;2022-10-26T11:22:33;93118.59;;;23.57;34.95
53041;BME280;39326;42.650;23.248;2022-10-26T11:25:34;93122.13;;;23.67;35.17
53041;BME280;39326;42.650;23.248;2022-10-26T11:28:09;93127.38;;;23.52;34.69
53041;BME280;39326;42.650;23.248;2022-10-26T11:30:41;93129.16;;;23.37;35.67
53041;BME280;39326;42.650;23.248;2022-10-26T11:36:02;93119.25;;;23.80;35.13
53041;BME280;39326;42.650;23.248;2022-10-26T11:43:48;93112.41;;;23.57;33.21
53041;BME280;39326;42.650;23.248;2022-10-26T11:54:28;93110.63;;;23.81;30.61
53041;BME280;39326;42.650;23.248;2022-10-26T11:56:57;93103.97;;;23.91;30.66
53041;BME280;39326;42.650;23.248;2022-10-26T11:59:26;93103.34;;;24.15;30.92
53041;BME280;39326;42.650;23.248;2022-10-26T12:02:01;93104.44;;;23.99;30.06
53041;BME280;39326;42.650;23.248;2022-10-26T12:04:31;93092.78;;;24.17;31.17
53041;BME280;39326;42.650;23.248;2022-10-26T12:07:01;93101.38;;;23.88;31.50
53041;BME280;39326;42.650;23.248;2022-10-26T12:09:31;93098.50;;;23.82;31.66
53041;BME280;39326;42.650;23.248;2022-10-26T12:12:23;93094.28;;;23.99;31.13
53041;BME280;39326;42.650;23.248;2022-10-26T12:15:03;93097.44;;;24.25;31.49
53041;BME280;39326;42.650;23.248;2022-10-26T12:17:39;93106.22;;;24.20;30.06
53041;BME280;39326;42.650;23.248;2022-10-26T12:21:11;93093.66;;;23.86;31.20
53041;BME280;39326;42.650;23.248;2022-10-26T12:23:08;93095.03;;;23.91;31.84
53041;BME280;39326;42.650;23.248;2022-10-26T12:25:35;93098.19;;;23.89;31.89
53041;BME280;39326;42.650;23.248;2022-10-26T12:28:02;93103.97;;;23.73;32.05
53041;BME280;39326;42.650;23.248;2022-10-26T12:30:32;93098.03;;;23.56;31.47
53041;BME280;39326;42.650;23.248;2022-10-26T12:33:03;93100.13;;;23.52;32.40
53041;BME280;39326;42.650;23.248;2022-10-26T12:35:48;93099.38;;;23.42;31.80
53041;BME280;39326;42.650;23.248;2022-10-26T12:40:48;93102.81;;;23.34;32.08
53041;BME280;39326;42.650;23.248;2022-10-26T12:45:40;93108.72;;;23.32;32.09
53041;BME280;39326;42.650;23.248;2022-10-26T12:48:23;93109.00;;;23.25;31.47
53041;BME280;39326;42.650;23.248;2022-10-26T12:50:51;93101.53;;;23.07;32.51
53041;BME280;39326;42.650;23.248;2022-10-26T12:53:19;93105.03;;;22.77;31.68
53041;BME280;39326;42.650;23.248;2022-10-26T13:01:44;93112.63;;;22.29;31.20
53041;BME280;39326;42.650;23.248;2022-10-26T13:07:18;93106.28;;;22.32;31.54
53041;BME280;39326;42.650;23.248;2022-10-26T13:09:54;93111.47;;;21.95;31.48
53041;BME280;39326;42.650;23.248;2022-10-26T13:12:21;93106.94;;;21.79;31.58
53041;BME280;39326;42.650;23.248;2022-10-26T13:15:21;93118.16;;;21.69;32.19
53041;BME280;39326;42.650;23.248;2022-10-26T13:18:01;93113.78;;;21.37;31.54
53041;BME280;39326;42.650;23.248;2022-10-26T13:20:33;93112.63;;;20.99;31.82
53041;BME280;39326;42.650;23.248;2022-10-26T13:23:01;93112.84;;;20.92;32.49
53041;BME280;39326;42.650;23.248;2022-10-26T13:25:29;93114.13;;;20.88;32.52
53041;BME280;39326;42.650;23.248;2022-10-26T13:30:48;93117.34;;;20.32;32.44
53041;BME280;39326;42.650;23.248;2022-10-26T13:33:22;93122.50;;;20.26;31.92
53041;BME280;39326;42.650;23.248;2022-10-26T13:35:52;93122.09;;;19.98;32.64
53041;BME280;39326;42.650;23.248;2022-10-26T13:38:21;93122.13;;;19.82;32.44
53041;BME280;39326;42.650;23.248;2022-10-26T13:40:48;93120.72;;;19.78;32.61
53041;BME280;39326;42.650;23.248;2022-10-26T13:43:20;93124.50;;;19.80;33.28
53041;BME280;39326;42.650;23.248;2022-10-26T13:45:55;93120.38;;;19.75;32.68
53041;BME280;39326;42.650;23.248;2022-10-26T13:48:41;93120.63;;;19.52;33.39
53041;BME280;39326;42.650;23.248;2022-10-26T13:51:24;93127.69;;;19.30;34.95
53041;BME280;39326;42.650;23.248;2022-10-26T13:54:01;93134.63;;;19.31;34.51
53041;BME280;39326;42.650;23.248;2022-10-26T13:56:32;93134.97;;;19.16;34.58
53041;BME280;39326;42.650;23.248;2022-10-26T13:59:04;93131.50;;;19.16;33.80
53041;BME280;39326;42.650;23.248;2022-10-26T14:01:31;93131.00;;;19.21;34.96
53041;BME280;39326;42.650;23.248;2022-10-26T14:03:57;93137.16;;;19.05;35.17
53041;BME280;39326;42.650;23.248;2022-10-26T14:06:37;93141.16;;;19.01;34.56
53041;BME280;39326;42.650;23.248;2022-10-26T14:09:09;93139.09;;;19.05;34.61
53041;BME280;39326;42.650;23.248;2022-10-26T14:12:08;93140.34;;;18.84;34.96
53041;BME280;39326;42.650;23.248;2022-10-26T14:14:36;93151.22;;;18.80;35.30
53041;BME280;39326;42.650;23.248;2022-10-26T14:17:03;93140.91;;;18.75;35.13
53041;BME280;39326;42.650;23.248;2022-10-26T14:19:35;93141.19;;;18.61;36.12
53041;BME280;39326;42.650;23.248;2022-10-26T14:22:01;93143.44;;;18.66;35.93
53041;BME280;39326;42.650;23.248;2022-10-26T14:24:34;93139.91;;;18.69;36.20
53041;BME280;39326;42.650;23.248;2022-10-26T14:27:02;93142.25;;;18.67;37.10
53041;BME280;39326;42.650;23.248;2022-10-26T14:29:31;93141.50;;;18.66;38.16
53041;BME280;39326;42.650;23.248;2022-10-26T14:31:57;93148.38;;;18.51;38.83
53041;BME280;39326;42.650;23.248;2022-10-26T14:34:23;93142.75;;;18.42;39.04
53041;BME280;39326;42.650;23.248;2022-10-26T14:37:00;93144.84;;;18.34;39.73
53041;BME280;39326;42.650;23.248;2022-10-26T14:42:02;93153.72;;;17.95;40.25
53041;BME280;39326;42.650;23.248;2022-10-26T14:44:35;93154.13;;;17.94;39.36
53041;BME280;39326;42.650;23.248;2022-10-26T14:47:02;93145.69;;;17.92;39.18
53041;BME280;39326;42.650;23.248;2022-10-26T14:49:28;93152.38;;;17.83;39.90
53041;BME280;39326;42.650;23.248;2022-10-26T14:51:58;93150.91;;;17.79;39.28